createdAt,value
2022-08-26T00:00:42.899Z,22.5
2022-08-26T00:01:47.605Z,22.5
2022-08-26T00:02:52.106Z,22.6
2022-08-26T00:03:56.574Z,22.5
2022-08-26T00:05:00.895Z,22.6
2022-08-26T00:06:05.424Z,22.5
2022-08-26T00:07:09.731Z,22.5
2022-08-26T00:08:13.995Z,22.5
2022-08-26T00:09:18.397Z,22.5
2022-08-26T00:10:22.807Z,22.5
2022-08-26T00:11:27.295Z,22.4
2022-08-26T00:12:36.104Z,22.4
2022-08-26T00:13:36.739Z,22.4
2022-08-26T00:14:41.100Z,22.4
2022-08-26T00:15:45.512Z,22.3
2022-08-26T00:16:50.050Z,22.3
2022-08-26T00:17:54.708Z,22.3
2022-08-26T00:18:59.356Z,22.2
2022-08-26T00:20:04.160Z,22.2
2022-08-26T00:21:09.260Z,22.2
2022-08-26T00:22:14.104Z,22.2
2022-08-26T00:23:20.297Z,22.2
2022-08-26T00:24:25.975Z,22.1
2022-08-26T00:25:30.256Z,22.1
2022-08-26T00:26:34.479Z,22.2
2022-08-26T00:27:41.536Z,22.2
2022-08-26T00:28:45.952Z,22.1
2022-08-26T00:29:52.605Z,22.1
2022-08-26T00:30:56.940Z,22.1
2022-08-26T00:32:01.611Z,22.1
2022-08-26T00:33:06.333Z,22.1
2022-08-26T00:34:11.132Z,22.1
2022-08-26T00:35:15.464Z,22.1
2022-08-26T00:36:20.477Z,22.1
2022-08-26T00:37:24.527Z,22.1
2022-08-26T00:38:29.221Z,22.1
2022-08-26T00:39:34.112Z,22.1
2022-08-26T00:40:38.674Z,22.1
2022-08-26T00:41:46.071Z,22.1
2022-08-26T00:42:50.456Z,22.1
2022-08-26T00:43:54.715Z,22.1
2022-08-26T00:44:59.031Z,22.1
2022-08-26T00:46:03.509Z,22.1
2022-08-26T00:47:07.779Z,22.1
2022-08-26T00:48:12.297Z,22.1
2022-08-26T00:49:21.844Z,22.1
2022-08-26T00:50:29.351Z,22.1
2022-08-26T00:51:34.223Z,22
2022-08-26T00:52:38.784Z,22
2022-08-26T00:53:43.255Z,22
2022-08-26T00:54:52.799Z,22
2022-08-26T00:55:57.579Z,22
2022-08-26T00:57:01.907Z,22
2022-08-26T00:58:09.057Z,22
2022-08-26T00:59:13.396Z,22
2022-08-26T01:00:18.435Z,22
2022-08-26T01:01:23.325Z,22
2022-08-26T01:02:28.852Z,21.9
2022-08-26T01:03:32.996Z,21.9
2022-08-26T01:05:41.509Z,21.9
2022-08-26T01:06:45.907Z,21.9
2022-08-26T01:07:52.563Z,21.9
2022-08-26T01:08:56.946Z,21.8
2022-08-26T01:10:01.119Z,21.8
2022-08-26T01:11:05.775Z,21.8
2022-08-26T01:12:10.135Z,21.8
2022-08-26T01:13:14.582Z,21.8
2022-08-26T01:14:19.122Z,21.8
2022-08-26T01:15:23.119Z,21.8
2022-08-26T01:16:30.336Z,21.8
2022-08-26T01:17:34.543Z,21.8
2022-08-26T01:18:38.868Z,21.8
2022-08-26T01:19:43.163Z,21.8
2022-08-26T01:20:47.635Z,21.8
2022-08-26T01:22:00.479Z,21.8
2022-08-26T01:23:12.812Z,21.7
2022-08-26T01:24:17.063Z,21.7
2022-08-26T01:25:21.419Z,21.7
2022-08-26T01:26:25.975Z,21.7
2022-08-26T01:27:30.383Z,21.7
2022-08-26T01:28:35.335Z,21.7
2022-08-26T01:29:39.568Z,21.7
2022-08-26T01:30:43.867Z,21.7
2022-08-26T01:31:48.157Z,21.7
2022-08-26T01:32:52.691Z,21.7
2022-08-26T01:33:57.259Z,21.7
2022-08-26T01:35:04.627Z,21.7
2022-08-26T01:36:09.116Z,21.7
2022-08-26T01:37:15.675Z,21.7
2022-08-26T01:38:18.314Z,21.7
2022-08-26T01:39:22.951Z,21.7
2022-08-26T01:40:27.713Z,21.6
2022-08-26T01:41:32.795Z,21.6
2022-08-26T01:42:37.336Z,21.6
2022-08-26T01:43:42.468Z,21.6
2022-08-26T01:44:47.044Z,21.6
2022-08-26T01:45:56.755Z,21.7
2022-08-26T01:47:01.389Z,21.6
2022-08-26T01:48:05.984Z,21.7
2022-08-26T01:49:10.604Z,21.6
2022-08-26T01:50:15.632Z,21.6
2022-08-26T01:51:19.932Z,21.6
2022-08-26T01:52:24.548Z,21.6
2022-08-26T01:53:28.896Z,21.6
2022-08-26T01:54:33.428Z,21.6
2022-08-26T01:55:37.880Z,21.6
2022-08-26T01:56:42.184Z,21.6
2022-08-26T01:57:46.917Z,21.6
2022-08-26T01:58:51.496Z,21.6
2022-08-26T01:59:55.985Z,21.6
2022-08-26T02:01:00.658Z,21.6
2022-08-26T02:02:05.195Z,21.6
2022-08-26T02:03:09.748Z,21.6
2022-08-26T02:04:19.276Z,21.6
2022-08-26T02:05:28.988Z,21.5
2022-08-26T02:06:33.384Z,21.5
2022-08-26T02:07:40.428Z,21.5
2022-08-26T02:08:45.023Z,21.5
2022-08-26T02:09:50.020Z,21.5
2022-08-26T02:10:54.934Z,21.5
2022-08-26T02:11:58.753Z,21.5
2022-08-26T02:13:03.060Z,21.5
2022-08-26T02:14:07.475Z,21.4
2022-08-26T02:15:17.270Z,21.4
2022-08-26T02:16:21.431Z,21.4
2022-08-26T02:17:25.916Z,21.4
2022-08-26T02:18:30.539Z,21.4
2022-08-26T02:19:34.841Z,21.4
2022-08-26T02:20:44.280Z,21.4
2022-08-26T02:21:50.970Z,21.4
2022-08-26T02:22:53.232Z,21.4
2022-08-26T02:23:57.643Z,21.4
2022-08-26T02:25:07.260Z,21.4
2022-08-26T02:26:18.098Z,21.4
2022-08-26T02:27:21.008Z,21.4
2022-08-26T02:28:26.723Z,21.3
2022-08-26T02:29:30.080Z,21.3
2022-08-26T02:30:34.576Z,21.3
2022-08-26T02:31:39.042Z,21.3
2022-08-26T02:32:43.268Z,21.3
2022-08-26T02:33:47.476Z,21.3
2022-08-26T02:34:52.063Z,21.3
2022-08-26T02:35:56.506Z,21.3
2022-08-26T02:37:00.984Z,21.3
2022-08-26T02:38:09.967Z,21.2
2022-08-26T02:39:09.823Z,21.2
2022-08-26T02:40:14.195Z,21.2
2022-08-26T02:41:18.588Z,21.2
2022-08-26T02:42:23.032Z,21.2
2022-08-26T02:43:31.585Z,21.2
2022-08-26T02:44:31.891Z,21.2
2022-08-26T02:45:36.187Z,21.2
2022-08-26T02:46:40.636Z,21.2
2022-08-26T02:47:45.145Z,21.2
2022-08-26T02:48:49.268Z,21.1
2022-08-26T02:49:54.016Z,21.1
2022-08-26T02:50:58.356Z,21.1
2022-08-26T02:52:02.839Z,21.1
2022-08-26T02:53:07.388Z,21.1
2022-08-26T02:54:11.512Z,21.1
2022-08-26T02:55:15.971Z,21.1
2022-08-26T02:56:20.667Z,21.1
2022-08-26T02:57:25.541Z,21.1
2022-08-26T02:58:29.997Z,21.1
2022-08-26T02:59:34.408Z,21.1
2022-08-26T03:00:38.998Z,21
2022-08-26T03:01:43.546Z,21
2022-08-26T03:02:48.148Z,21
2022-08-26T03:03:52.544Z,21
2022-08-26T03:04:57.656Z,21
2022-08-26T03:06:06.812Z,21
2022-08-26T03:07:11.184Z,21
2022-08-26T03:08:15.568Z,21
2022-08-26T03:09:20.171Z,21
2022-08-26T03:10:24.646Z,21
2022-08-26T03:11:32.818Z,21
2022-08-26T03:12:33.794Z,21
2022-08-26T03:13:37.994Z,21
2022-08-26T03:14:45.410Z,21
2022-08-26T03:15:49.807Z,21
2022-08-26T03:16:54.258Z,21
2022-08-26T03:17:58.618Z,21
2022-08-26T03:19:02.997Z,21
2022-08-26T03:20:07.350Z,20.9
2022-08-26T03:21:11.686Z,20.9
2022-08-26T03:22:16.202Z,20.9
2022-08-26T03:23:20.850Z,20.9
2022-08-26T03:24:25.252Z,20.9
2022-08-26T03:25:29.699Z,20.9
2022-08-26T03:26:34.266Z,20.9
2022-08-26T03:27:38.938Z,20.9
2022-08-26T03:28:43.566Z,20.9
2022-08-26T03:29:53.130Z,20.9
2022-08-26T03:31:02.473Z,20.9
2022-08-26T03:32:06.850Z,20.8
2022-08-26T03:33:11.430Z,20.9
2022-08-26T03:34:15.939Z,20.9
2022-08-26T03:35:20.377Z,20.9
2022-08-26T03:36:24.950Z,20.9
2022-08-26T03:37:29.502Z,20.9
2022-08-26T03:38:34.090Z,20.9
2022-08-26T03:39:38.546Z,20.9
2022-08-26T03:40:43.046Z,20.9
2022-08-26T03:41:47.707Z,20.9
2022-08-26T03:42:52.130Z,20.8
2022-08-26T03:44:01.019Z,20.8
2022-08-26T03:45:00.990Z,20.8
2022-08-26T03:46:05.686Z,20.8
2022-08-26T03:47:10.175Z,20.8
2022-08-26T03:48:14.670Z,20.7
2022-08-26T03:49:19.084Z,20.6
2022-08-26T03:50:24.214Z,20.7
2022-08-26T03:51:28.182Z,20.7
2022-08-26T03:52:33.730Z,20.7
2022-08-26T03:53:38.186Z,20.7
2022-08-26T03:54:43.424Z,20.7
2022-08-26T03:55:47.054Z,20.7
2022-08-26T03:56:51.614Z,20.7
2022-08-26T03:57:56.063Z,20.6
2022-08-26T03:59:00.574Z,20.6
2022-08-26T04:00:04.952Z,20.4
2022-08-26T04:01:09.576Z,20.5
2022-08-26T04:02:14.089Z,20.6
2022-08-26T04:03:18.934Z,20.4
2022-08-26T04:04:24.487Z,20.4
2022-08-26T04:05:28.258Z,20.5
2022-08-26T04:06:32.626Z,20.5
2022-08-26T04:07:39.770Z,20.5
2022-08-26T04:08:44.134Z,20.5
2022-08-26T04:09:48.527Z,20.5
2022-08-26T04:10:55.657Z,20.6
2022-08-26T04:12:00.049Z,20.6
2022-08-26T04:13:04.954Z,20.6
2022-08-26T04:14:09.543Z,20.6
2022-08-26T04:15:14.295Z,20.6
2022-08-26T04:16:19.088Z,20.6
2022-08-26T04:17:25.020Z,20.7
2022-08-26T04:18:31.407Z,20.7
2022-08-26T04:19:32.603Z,20.7
2022-08-26T04:20:37.048Z,20.7
2022-08-26T04:21:41.459Z,20.7
2022-08-26T04:22:45.934Z,20.7
2022-08-26T04:23:50.402Z,20.7
2022-08-26T04:24:55.070Z,20.7
2022-08-26T04:25:59.482Z,20.8
2022-08-26T04:27:03.985Z,20.8
2022-08-26T04:28:08.409Z,20.8
2022-08-26T04:29:12.866Z,20.8
2022-08-26T04:30:17.525Z,20.9
2022-08-26T04:31:22.274Z,20.9
2022-08-26T04:32:26.552Z,20.9
2022-08-26T04:33:32.385Z,20.9
2022-08-26T04:34:35.392Z,21
2022-08-26T04:35:39.930Z,21
2022-08-26T04:36:44.582Z,21
2022-08-26T04:37:49.104Z,21
2022-08-26T04:38:53.435Z,21
2022-08-26T04:39:58.055Z,21
2022-08-26T04:41:02.411Z,21
2022-08-26T04:42:13.120Z,21
2022-08-26T04:43:17.603Z,21
2022-08-26T04:44:22.040Z,21
2022-08-26T04:45:26.615Z,21
2022-08-26T04:46:31.525Z,21
2022-08-26T04:47:35.968Z,21
2022-08-26T04:48:40.536Z,21
2022-08-26T04:49:45.108Z,21.1
2022-08-26T04:50:49.702Z,21.1
2022-08-26T04:51:54.071Z,21.1
2022-08-26T04:52:58.396Z,21.1
2022-08-26T04:54:02.720Z,21.1
2022-08-26T04:55:08.337Z,21.1
2022-08-26T04:56:11.668Z,21.1
2022-08-26T04:57:15.956Z,21.1
2022-08-26T04:58:20.143Z,21.1
2022-08-26T04:59:24.519Z,21.1
2022-08-26T05:00:28.908Z,21.1
2022-08-26T05:01:33.357Z,21.1
2022-08-26T05:02:37.825Z,21.1
2022-08-26T05:03:42.825Z,21
2022-08-26T05:04:47.176Z,21.1
2022-08-26T05:05:51.644Z,21
2022-08-26T05:07:02.502Z,21.1
2022-08-26T05:08:00.651Z,21.1
2022-08-26T05:09:05.168Z,21.1
2022-08-26T05:10:09.716Z,21.1
2022-08-26T05:11:14.176Z,21.2
2022-08-26T05:12:18.559Z,21.2
2022-08-26T05:13:23.083Z,21.2
2022-08-26T05:14:27.636Z,21.2
2022-08-26T05:15:32.328Z,21.1
2022-08-26T05:16:36.558Z,21.2
2022-08-26T05:17:40.980Z,21.2
2022-08-26T05:18:45.460Z,21.2
2022-08-26T05:19:50.064Z,21.2
2022-08-26T05:20:55.007Z,21.2
2022-08-26T05:21:59.235Z,21.2
2022-08-26T05:23:03.895Z,21.2
2022-08-26T05:24:08.351Z,21.3
2022-08-26T05:25:13.079Z,21.3
2022-08-26T05:26:17.351Z,21.3
2022-08-26T05:27:24.463Z,21.3
2022-08-26T05:28:28.811Z,21.2
2022-08-26T05:29:33.435Z,20.9
2022-08-26T05:30:37.852Z,21.1
2022-08-26T05:31:42.247Z,21.2
2022-08-26T05:32:46.752Z,21.3
2022-08-26T05:33:51.287Z,21.3
2022-08-26T05:34:55.682Z,21.2
2022-08-26T05:36:00.207Z,21.1
2022-08-26T05:37:09.958Z,21.2
2022-08-26T05:38:14.459Z,21.3
2022-08-26T05:39:18.811Z,21.3
2022-08-26T05:40:23.478Z,21.3
2022-08-26T05:41:27.892Z,21.3
2022-08-26T05:42:32.491Z,21.4
2022-08-26T05:43:36.863Z,21.4
2022-08-26T05:44:53.651Z,21.5
2022-08-26T05:45:46.018Z,21.5
2022-08-26T05:46:51.184Z,21.4
2022-08-26T05:48:01.363Z,21.4
2022-08-26T05:49:06.088Z,21.4
2022-08-26T05:50:10.639Z,21.4
2022-08-26T05:51:15.183Z,21.3
2022-08-26T05:52:19.649Z,21.4
2022-08-26T05:53:26.173Z,21.5
2022-08-26T05:54:28.763Z,21.6
2022-08-26T05:55:33.071Z,21.7
2022-08-26T05:56:42.562Z,21.7
2022-08-26T05:57:47.343Z,21.8
2022-08-26T05:58:51.760Z,21.8
2022-08-26T05:59:56.151Z,21.9
2022-08-26T06:01:00.551Z,21.6
2022-08-26T06:02:10.859Z,21.7
2022-08-26T06:03:15.704Z,21.7
2022-08-26T06:04:20.239Z,21.9
2022-08-26T06:05:24.917Z,21.9
2022-08-26T06:06:29.388Z,21.9
2022-08-26T06:07:33.989Z,22
2022-08-26T06:08:43.612Z,22.1
2022-08-26T06:09:48.065Z,22.1
2022-08-26T06:10:52.468Z,22.2
2022-08-26T06:11:57.851Z,22.2
2022-08-26T06:13:04.699Z,22.1
2022-08-26T06:14:06.825Z,22.2
2022-08-26T06:15:11.332Z,22.1
2022-08-26T06:16:15.759Z,21.7
2022-08-26T06:17:20.828Z,22
2022-08-26T06:18:25.602Z,22.1
2022-08-26T06:19:32.862Z,22
2022-08-26T06:20:36.081Z,22.1
2022-08-26T06:21:40.374Z,22.2
2022-08-26T06:22:48.101Z,22.2
2022-08-26T06:23:57.516Z,22.3
2022-08-26T06:25:07.052Z,22.4
2022-08-26T06:28:26.812Z,22.6
2022-08-26T06:29:31.232Z,22.6
2022-08-26T06:30:35.652Z,22.6
2022-08-26T06:31:41.661Z,22.6
2022-08-26T06:32:46.023Z,22.7
2022-08-26T06:33:50.424Z,22.8
2022-08-26T06:34:55.076Z,22.8
2022-08-26T06:35:59.613Z,22.8
2022-08-26T06:37:04.188Z,22.9
2022-08-26T06:38:08.472Z,22.9
2022-08-26T06:39:13.170Z,23
2022-08-26T06:40:17.571Z,23.1
2022-08-26T06:41:22.096Z,23.1
2022-08-26T06:42:26.504Z,23.2
2022-08-26T06:43:30.996Z,23.1
2022-08-26T06:44:35.552Z,23.2
2022-08-26T06:45:41.612Z,23.1
2022-08-26T06:46:46.433Z,23.2
2022-08-26T06:47:51.028Z,23.3
2022-08-26T06:48:55.651Z,23.3
2022-08-26T06:50:00.202Z,23.3
2022-08-26T06:51:05.096Z,23.4
2022-08-26T06:52:09.576Z,23.5
2022-08-26T06:53:14.077Z,23.6
2022-08-26T06:54:18.532Z,23.7
2022-08-26T06:55:23.192Z,23.7
2022-08-26T06:56:27.896Z,23.8
2022-08-26T06:57:41.190Z,23.8
2022-08-26T06:58:45.340Z,23.8
2022-08-26T07:00:00.973Z,23.9
2022-08-26T07:01:09.582Z,23.8
2022-08-26T07:02:14.877Z,23.7
2022-08-26T07:03:19.597Z,23.9
2022-08-26T07:04:24.289Z,24
2022-08-26T07:05:28.696Z,24.1
2022-08-26T07:06:33.008Z,24.1
2022-08-26T07:07:37.594Z,24.2
2022-08-26T07:08:42.269Z,24.3
2022-08-26T07:09:49.547Z,24.2
2022-08-26T07:10:54.209Z,24.3
2022-08-26T07:11:58.741Z,24.4
2022-08-26T07:13:03.206Z,24.4
2022-08-26T07:14:07.612Z,24.4
2022-08-26T07:15:12.273Z,24.5
2022-08-26T07:16:16.696Z,24.3
2022-08-26T07:17:21.400Z,24.3
2022-08-26T07:18:26.048Z,24.4
2022-08-26T07:19:31.703Z,24.1
2022-08-26T07:20:35.141Z,24.3
2022-08-26T07:21:39.861Z,24.5
2022-08-26T07:22:44.513Z,24.6
2022-08-26T07:23:49.096Z,24.4
2022-08-26T07:24:53.705Z,24.3
2022-08-26T07:25:58.337Z,24.4
2022-08-26T07:27:08.902Z,24.5
2022-08-26T07:28:13.189Z,24.6
2022-08-26T07:29:17.705Z,24.8
2022-08-26T07:30:22.166Z,24.9
2022-08-26T07:31:26.839Z,25
2022-08-26T07:32:31.270Z,24.9
2022-08-26T07:33:35.913Z,24.9
2022-08-26T07:34:40.621Z,25
2022-08-26T07:35:45.134Z,25.1
2022-08-26T07:36:49.625Z,25.3
2022-08-26T07:37:56.995Z,25.2
2022-08-26T07:38:58.881Z,25
2022-08-26T07:40:03.314Z,25.2
2022-08-26T07:41:08.053Z,25.3
2022-08-26T07:42:12.556Z,25.4
2022-08-26T07:43:17.050Z,25.5
2022-08-26T07:44:21.661Z,25.5
2022-08-26T07:45:26.720Z,25.6
2022-08-26T07:46:31.178Z,25.4
2022-08-26T07:47:35.899Z,25.5
2022-08-26T07:48:40.483Z,25.6
2022-08-26T07:49:45.121Z,25.6
2022-08-26T07:50:50.456Z,25.5
2022-08-26T07:51:54.332Z,25.6
2022-08-26T07:52:58.851Z,25.6
2022-08-26T07:54:03.700Z,25.8
2022-08-26T07:55:08.200Z,25.9
2022-08-26T07:56:12.597Z,25.9
2022-08-26T07:57:17.047Z,26
2022-08-26T07:58:21.487Z,26.1
2022-08-26T07:59:26.042Z,26
2022-08-26T08:00:30.542Z,25.9
2022-08-26T08:01:35.098Z,26
2022-08-26T08:02:39.506Z,26.1
2022-08-26T08:03:44.046Z,26.2
2022-08-26T08:04:48.500Z,26.2
2022-08-26T08:05:52.694Z,26.2
2022-08-26T08:06:57.390Z,26.3
2022-08-26T08:08:26.452Z,26.4
2022-08-26T08:09:06.561Z,26.4
2022-08-26T08:10:11.343Z,26.1
2022-08-26T08:11:15.505Z,26.3
2022-08-26T08:12:25.018Z,26.2
2022-08-26T08:13:29.665Z,26.1
2022-08-26T08:14:34.125Z,26.3
2022-08-26T08:15:38.502Z,26.2
2022-08-26T08:16:46.181Z,26.3
2022-08-26T08:17:47.677Z,26.3
2022-08-26T08:18:52.040Z,26.5
2022-08-26T08:19:56.461Z,26.4
2022-08-26T08:21:19.814Z,26.3
2022-08-26T08:22:06.855Z,26.5
2022-08-26T08:23:09.737Z,26.5
2022-08-26T08:24:14.069Z,26.7
2022-08-26T08:25:18.617Z,26.6
2022-08-26T08:26:23.281Z,26.7
2022-08-26T08:27:27.661Z,26.9
2022-08-26T08:28:34.833Z,26.8
2022-08-26T08:29:39.304Z,26.6
2022-08-26T08:30:43.882Z,26.8
2022-08-26T08:31:56.417Z,26.9
2022-08-26T08:32:52.670Z,26.6
2022-08-26T08:35:01.470Z,26.8
2022-08-26T08:36:06.233Z,26.9
2022-08-26T08:37:11.018Z,27
2022-08-26T08:38:15.357Z,27
2022-08-26T08:39:20.029Z,27.2
2022-08-26T08:40:31.330Z,27.1
2022-08-26T08:41:35.465Z,27.2
2022-08-26T08:42:45.099Z,27
2022-08-26T08:43:52.293Z,26.9
2022-08-26T08:44:56.753Z,27.2
2022-08-26T08:46:01.196Z,27.2
2022-08-26T08:47:10.925Z,27.3
2022-08-26T08:48:27.301Z,27.4
2022-08-26T08:49:27.051Z,27.4
2022-08-26T08:50:31.788Z,27.5
2022-08-26T08:51:36.243Z,27.5
2022-08-26T08:52:40.650Z,27.3
2022-08-26T08:53:45.112Z,27.3
2022-08-26T08:54:49.587Z,27.2
2022-08-26T08:55:54.719Z,27.2
2022-08-26T08:56:59.685Z,27.1
2022-08-26T08:58:09.522Z,27.3
2022-08-26T08:59:20.548Z,27.3
2022-08-26T09:00:30.157Z,27.5
2022-08-26T09:01:31.098Z,27.6
2022-08-26T09:02:40.701Z,27.7
2022-08-26T09:03:50.176Z,27.7
2022-08-26T09:05:02.904Z,27.9
2022-08-26T09:06:15.965Z,27.6
2022-08-26T09:07:22.152Z,27.6
2022-08-26T09:08:31.656Z,27.7
2022-08-26T09:09:36.069Z,27.9
2022-08-26T09:10:40.651Z,27.8
2022-08-26T09:11:45.386Z,27.9
2022-08-26T09:12:49.835Z,27.9
2022-08-26T09:13:54.286Z,27.7
2022-08-26T09:15:00.694Z,27.7
2022-08-26T09:16:05.143Z,27.7
2022-08-26T09:17:09.746Z,27.8
2022-08-26T09:18:19.226Z,27.9
2022-08-26T09:19:29.210Z,27.9
2022-08-26T09:20:43.722Z,27.5
2022-08-26T09:21:53.403Z,27.2
2022-08-26T09:22:58.342Z,27.2
2022-08-26T09:24:03.006Z,27.5
2022-08-26T09:25:07.682Z,27.4
2022-08-26T09:26:12.170Z,27.6
2022-08-26T09:27:19.515Z,27.9
2022-08-26T09:28:34.140Z,28
2022-08-26T09:29:38.581Z,28.1
2022-08-26T09:30:43.359Z,28.1
2022-08-26T09:31:47.886Z,28.1
2022-08-26T09:32:56.163Z,28.3
2022-08-26T09:34:02.078Z,28.3
2022-08-26T09:35:14.578Z,27.9
2022-08-26T09:36:28.971Z,27.9
2022-08-26T09:37:33.737Z,28
2022-08-26T09:38:40.884Z,27.9
2022-08-26T09:39:45.549Z,27.8
2022-08-26T09:40:50.450Z,28
2022-08-26T09:41:57.990Z,28.3
2022-08-26T09:43:12.402Z,28.3
2022-08-26T09:44:19.729Z,28.4
2022-08-26T09:45:24.238Z,28.5
2022-08-26T09:46:28.918Z,28.2
2022-08-26T09:47:33.322Z,28.3
2022-08-26T09:48:37.763Z,28.5
2022-08-26T09:49:42.366Z,28.5
2022-08-26T09:50:46.743Z,28.6
2022-08-26T09:51:56.799Z,28.6
2022-08-26T09:53:12.764Z,28.6
2022-08-26T09:54:20.622Z,28.6
2022-08-26T09:55:26.367Z,28.6
2022-08-26T09:56:30.883Z,28.8
2022-08-26T09:57:38.011Z,28.8
2022-08-26T09:58:48.190Z,28.9
2022-08-26T09:59:52.511Z,29
2022-08-26T10:00:57.140Z,29
2022-08-26T10:03:15.738Z,29.1
2022-08-26T10:04:19.256Z,29.1
2022-08-26T10:05:23.719Z,29.2
2022-08-26T10:06:36.017Z,29.2
2022-08-26T10:07:48.354Z,29.2
2022-08-26T10:08:53.082Z,29.1
2022-08-26T10:10:00.092Z,29.2
2022-08-26T10:11:04.394Z,29.2
2022-08-26T10:12:08.730Z,29.3
2022-08-26T10:13:13.010Z,29.4
2022-08-26T10:14:23.393Z,29.5
2022-08-26T10:15:32.974Z,29.1
2022-08-26T10:16:40.282Z,29.2
2022-08-26T10:17:49.842Z,29.2
2022-08-26T10:19:00.238Z,29.1
2022-08-26T10:20:09.831Z,29.2
2022-08-26T10:21:14.659Z,29.3
2022-08-26T10:22:19.257Z,29.3
2022-08-26T10:23:26.379Z,29.5
2022-08-26T10:24:30.783Z,29.6
2022-08-26T10:25:38.061Z,29.6
2022-08-26T10:26:52.742Z,29.7
2022-08-26T10:28:00.254Z,29.7
2022-08-26T10:30:13.694Z,29.4
2022-08-26T10:31:18.684Z,28.9
2022-08-26T10:32:28.719Z,29.3
2022-08-26T10:34:41.746Z,29.4
2022-08-26T10:35:46.334Z,29.2
2022-08-26T10:37:16.555Z,29.2
2022-08-26T10:38:00.333Z,29.5
2022-08-26T10:39:09.873Z,29.5
2022-08-26T10:40:24.368Z,29.5
2022-08-26T10:41:38.770Z,29.3
2022-08-26T10:42:43.515Z,28.8
2022-08-26T10:43:55.721Z,28.6
2022-08-26T10:45:00.133Z,28.9
2022-08-26T10:46:09.732Z,28.8
2022-08-26T10:47:14.110Z,28.6
2022-08-26T10:48:21.190Z,28.8
2022-08-26T10:49:28.229Z,29
2022-08-26T10:50:32.685Z,29.2
2022-08-26T10:51:39.961Z,29.4
2022-08-26T10:52:52.097Z,29.4
2022-08-26T10:54:01.413Z,29.5
2022-08-26T10:55:15.827Z,29.5
2022-08-26T10:56:25.197Z,29.6
2022-08-26T10:57:39.789Z,29.6
2022-08-26T10:58:44.592Z,29.7
2022-08-26T10:59:58.529Z,29.8
2022-08-26T11:01:10.090Z,29.9
2022-08-26T11:02:25.441Z,29.7
2022-08-26T11:03:37.817Z,29.8
2022-08-26T11:04:47.054Z,30
2022-08-26T11:05:52.253Z,30
2022-08-26T11:07:06.718Z,30.1
2022-08-26T11:08:21.297Z,30.1
2022-08-26T11:09:28.757Z,30.1
2022-08-26T11:10:43.117Z,30.2
2022-08-26T11:11:52.606Z,30.2
2022-08-26T11:12:57.069Z,30.2
2022-08-26T11:14:01.400Z,30.1
2022-08-26T11:15:05.757Z,30.1
2022-08-26T11:16:12.867Z,30.1
2022-08-26T11:17:17.195Z,29.8
2022-08-26T11:18:21.746Z,30
2022-08-26T11:19:57.016Z,30.1
2022-08-26T11:20:41.707Z,30.2
2022-08-26T11:21:45.185Z,30.2
2022-08-26T11:22:59.917Z,30.1
2022-08-26T11:25:29.864Z,30.2
2022-08-26T11:26:35.503Z,30.1
2022-08-26T11:27:34.653Z,29.8
2022-08-26T11:28:39.246Z,29.8
2022-08-26T11:29:46.511Z,29.9
2022-08-26T11:30:57.981Z,30
2022-08-26T11:32:00.268Z,29.9
2022-08-26T11:33:04.744Z,30
2022-08-26T11:34:10.830Z,29.9
2022-08-26T11:35:13.741Z,30
2022-08-26T11:36:18.010Z,30.2
2022-08-26T11:37:32.570Z,30.2
2022-08-26T11:38:36.701Z,30.1
2022-08-26T11:39:45.812Z,30
2022-08-26T11:40:48.344Z,30.1
2022-08-26T11:41:55.645Z,30.1
2022-08-26T11:43:05.842Z,30
2022-08-26T11:44:13.181Z,30
2022-08-26T11:45:22.658Z,30
2022-08-26T11:46:31.798Z,30
2022-08-26T11:47:35.977Z,30
2022-08-26T11:48:40.327Z,30.2
2022-08-26T11:49:45.005Z,30
2022-08-26T11:50:49.341Z,30.1
2022-08-26T11:51:56.622Z,30
2022-08-26T11:53:11.001Z,29.8
2022-08-26T11:54:15.855Z,30
2022-08-26T11:55:23.362Z,30
2022-08-26T11:56:27.197Z,30
2022-08-26T11:57:31.633Z,30.2
2022-08-26T11:58:35.937Z,30.2
2022-08-26T11:59:42.909Z,30.1
2022-08-26T12:00:47.299Z,30.2
2022-08-26T12:01:56.804Z,30.2
2022-08-26T12:03:01.623Z,30
2022-08-26T12:04:06.108Z,29.9
2022-08-26T12:05:10.496Z,30
2022-08-26T12:06:14.913Z,29.7
2022-08-26T12:07:23.720Z,29.8
2022-08-26T12:08:27.871Z,29.8
2022-08-26T12:09:30.953Z,30
2022-08-26T12:10:35.600Z,30.1
2022-08-26T12:11:40.240Z,30.2
2022-08-26T12:12:44.604Z,30.1
2022-08-26T12:13:48.944Z,30.1
2022-08-26T12:14:58.292Z,30.1
2022-08-26T12:16:08.047Z,30.2
2022-08-26T12:17:12.448Z,30.1
2022-08-26T12:18:16.704Z,30.1
2022-08-26T12:19:24.040Z,30.2
2022-08-26T12:20:28.279Z,30.2
2022-08-26T12:21:34.680Z,30.2
2022-08-26T12:23:40.547Z,30.2
2022-08-26T12:24:48.064Z,30.3
2022-08-26T12:25:57.632Z,30.4
2022-08-26T12:27:04.852Z,30.3
2022-08-26T12:28:16.584Z,30.2
2022-08-26T12:29:27.003Z,30.1
2022-08-26T12:30:26.119Z,30.3
2022-08-26T12:31:30.654Z,30.3
2022-08-26T12:32:52.874Z,30.4
2022-08-26T12:33:50.500Z,30.4
2022-08-26T12:34:59.765Z,30.3
2022-08-26T12:36:04.438Z,30.4
2022-08-26T12:37:08.953Z,30.5
2022-08-26T12:38:14.012Z,30.4
2022-08-26T12:39:18.789Z,30.4
2022-08-26T12:40:29.313Z,30.5
2022-08-26T12:41:33.683Z,30.5
2022-08-26T12:42:41.264Z,30.5
2022-08-26T12:43:45.703Z,30.3
2022-08-26T12:44:52.927Z,30.4
2022-08-26T12:45:59.989Z,30.4
2022-08-26T12:47:04.362Z,30.5
2022-08-26T12:48:19.000Z,30.4
2022-08-26T12:49:28.563Z,30.5
2022-08-26T12:50:33.147Z,30.4
2022-08-26T12:51:37.607Z,30.4
2022-08-26T12:52:42.151Z,30.4
2022-08-26T12:53:55.523Z,30.3
2022-08-26T12:55:00.110Z,30.1
2022-08-26T12:56:18.835Z,30.1
2022-08-26T12:57:26.267Z,30.3
2022-08-26T12:58:30.787Z,30.3
2022-08-26T12:59:35.289Z,30.2
2022-08-26T13:00:39.907Z,30.3
2022-08-26T13:03:08.296Z,30.2
2022-08-26T13:04:22.732Z,30.3
2022-08-26T13:05:34.956Z,30.4
2022-08-26T13:06:39.548Z,30.3
2022-08-26T13:07:44.147Z,30
2022-08-26T13:08:58.791Z,30.1
2022-08-26T13:10:08.355Z,30.2
2022-08-26T13:11:12.906Z,30.3
2022-08-26T13:12:17.538Z,30.1
2022-08-26T13:13:29.778Z,30
2022-08-26T13:14:34.182Z,29.9
2022-08-26T13:15:38.814Z,30.1
2022-08-26T13:16:43.285Z,30
2022-08-26T13:17:47.694Z,30.2
2022-08-26T13:18:54.590Z,30
2022-08-26T13:20:03.971Z,29.9
2022-08-26T13:21:06.685Z,29.9
2022-08-26T13:22:21.216Z,29.8
2022-08-26T13:23:25.713Z,29.8
2022-08-26T13:24:30.289Z,30
2022-08-26T13:25:34.930Z,30.1
2022-08-26T13:26:39.358Z,30.2
2022-08-26T13:27:43.821Z,30.2
2022-08-26T13:28:53.255Z,30.2
2022-08-26T13:29:54.661Z,30.1
2022-08-26T13:30:59.274Z,30.1
2022-08-26T13:32:03.785Z,30.3
2022-08-26T13:33:08.536Z,30.2
2022-08-26T13:34:16.445Z,30.2
2022-08-26T13:35:21.175Z,30.1
2022-08-26T13:36:25.728Z,30.1
2022-08-26T13:37:34.101Z,30.2
2022-08-26T13:38:34.809Z,30.2
2022-08-26T13:39:39.407Z,30.1
2022-08-26T13:40:43.992Z,30.1
2022-08-26T13:41:48.916Z,30.2
2022-08-26T13:42:53.844Z,30.3
2022-08-26T13:43:58.236Z,30
2022-08-26T13:45:02.656Z,30.1
2022-08-26T13:46:07.144Z,30.2
2022-08-26T13:47:15.987Z,30.2
2022-08-26T13:48:23.302Z,30.2
2022-08-26T13:49:29.952Z,30.2
2022-08-26T13:52:00.003Z,29.9
2022-08-26T13:53:04.600Z,30
2022-08-26T13:54:09.322Z,30.1
2022-08-26T13:55:13.868Z,30.1
2022-08-26T13:56:18.460Z,30.2
2022-08-26T13:57:22.904Z,30.1
2022-08-26T13:58:27.802Z,30
2022-08-26T13:59:32.724Z,30
2022-08-26T14:00:37.317Z,30.1
2022-08-26T14:01:41.836Z,30.2
2022-08-26T14:02:46.368Z,30.2
2022-08-26T14:03:58.299Z,30.2
2022-08-26T14:05:05.592Z,30.2
2022-08-26T14:06:10.168Z,30.3
2022-08-26T14:07:14.813Z,30.1
2022-08-26T14:08:19.364Z,30.2
2022-08-26T14:09:23.988Z,30.1
2022-08-26T14:10:28.684Z,30.2
2022-08-26T14:11:37.295Z,30.1
2022-08-26T14:12:37.616Z,30.1
2022-08-26T14:13:42.294Z,30
2022-08-26T14:14:46.856Z,30.1
2022-08-26T14:15:55.479Z,30.1
2022-08-26T14:17:01.661Z,30
2022-08-26T14:18:06.571Z,30.1
2022-08-26T14:19:10.705Z,30
2022-08-26T14:20:15.210Z,29.9
2022-08-26T14:21:24.777Z,30
2022-08-26T14:22:29.465Z,30
2022-08-26T14:23:34.112Z,30
2022-08-26T14:24:48.613Z,30.1
2022-08-26T14:25:53.148Z,30.1
2022-08-26T14:27:12.729Z,30.1
2022-08-26T14:28:17.059Z,30
2022-08-26T14:29:21.424Z,30
2022-08-26T14:30:26.032Z,30
2022-08-26T14:31:30.787Z,30
2022-08-26T14:32:35.112Z,30
2022-08-26T14:33:39.508Z,29.9
2022-08-26T14:34:44.576Z,30
2022-08-26T14:35:49.196Z,29.9
2022-08-26T14:36:53.808Z,29.6
2022-08-26T14:37:58.263Z,29.6
2022-08-26T14:39:02.608Z,29.6
2022-08-26T14:40:10.056Z,29.7
2022-08-26T14:42:36.084Z,29.9
2022-08-26T14:43:40.841Z,29.9
2022-08-26T14:44:48.548Z,29.8
2022-08-26T14:45:53.133Z,29.8
2022-08-26T14:47:03.816Z,29.8
2022-08-26T14:48:08.286Z,29.7
2022-08-26T14:49:12.700Z,29.8
2022-08-26T14:50:27.160Z,29.8
2022-08-26T14:51:31.518Z,29.8
2022-08-26T14:52:35.961Z,29.7
2022-08-26T14:53:55.608Z,29.8
2022-08-26T14:55:05.184Z,29.8
2022-08-26T14:56:12.662Z,29.7
2022-08-26T14:57:20.832Z,29.7